createdAt,value
2023-06-11T00:00:17.952Z,88488.00
2023-06-11T00:01:17.981Z,88490.00
2023-06-11T00:02:18.078Z,88490.00
2023-06-11T00:03:18.123Z,88484.00
2023-06-11T00:04:18.077Z,88488.00
2023-06-11T00:05:18.002Z,88484.00
2023-06-11T00:06:17.990Z,88486.00
2023-06-11T00:07:18.017Z,88484.00
2023-06-11T00:08:17.991Z,88484.00
2023-06-11T00:09:18.032Z,88486.00
2023-06-11T00:10:18.025Z,88484.00
2023-06-11T00:11:18.031Z,88486.00
2023-06-11T00:12:18.041Z,88490.00
2023-06-11T00:13:18.004Z,88484.00
2023-06-11T00:14:18.013Z,88488.00
2023-06-11T00:15:18.039Z,88484.00
2023-06-11T00:16:18.084Z,88484.00
2023-06-11T00:17:18.057Z,88486.00
2023-06-11T00:18:18.108Z,88486.00
2023-06-11T00:19:18.094Z,88486.00
2023-06-11T00:20:18.082Z,88486.00
2023-06-11T00:21:18.114Z,88484.00
2023-06-11T00:22:18.146Z,88486.00
2023-06-11T00:23:18.121Z,88488.00
2023-06-11T00:24:18.427Z,88488.00
2023-06-11T00:25:18.146Z,88488.00
2023-06-11T00:26:18.134Z,88490.00
2023-06-11T00:27:18.130Z,88490.00
2023-06-11T00:28:18.113Z,88488.00
2023-06-11T00:29:18.074Z,88488.00
2023-06-11T00:30:18.060Z,88488.00
2023-06-11T00:31:18.068Z,88484.00
2023-06-11T00:32:18.003Z,88483.00
2023-06-11T00:33:17.992Z,88484.00
2023-06-11T00:34:18.010Z,88483.00
2023-06-11T00:35:18.028Z,88484.00
2023-06-11T00:36:17.972Z,88483.00
2023-06-11T00:37:18.007Z,88484.00
2023-06-11T00:38:20.649Z,88484.00
2023-06-11T00:39:17.999Z,88484.00
2023-06-11T00:40:17.964Z,88484.00
2023-06-11T00:41:17.929Z,88483.00
2023-06-11T00:42:17.877Z,88484.00
2023-06-11T00:43:17.846Z,88484.00
2023-06-11T00:44:17.776Z,88483.00
2023-06-11T00:45:17.749Z,88484.00
2023-06-11T00:46:17.806Z,88484.00
2023-06-11T00:47:17.639Z,88486.00
2023-06-11T00:48:17.602Z,88484.00
2023-06-11T00:49:17.567Z,88483.00
2023-06-11T00:50:17.537Z,88484.00
2023-06-11T00:51:17.448Z,88483.00
2023-06-11T00:52:17.426Z,88484.00
2023-06-11T00:53:17.352Z,88484.00
2023-06-11T00:54:17.336Z,88484.00
2023-06-11T00:55:17.286Z,88486.00
2023-06-11T00:56:17.241Z,88486.00
2023-06-11T00:57:17.187Z,88486.00
2023-06-11T00:58:17.146Z,88488.00
2023-06-11T00:59:17.087Z,88488.00
2023-06-11T01:00:17.037Z,88488.00
2023-06-11T01:01:17.014Z,88499.00
2023-06-11T01:02:16.923Z,88490.00
2023-06-11T01:03:16.864Z,88497.00
2023-06-11T01:04:16.991Z,88497.00
2023-06-11T01:05:16.998Z,88490.00
2023-06-11T01:06:16.731Z,88490.00
2023-06-11T01:07:16.678Z,88490.00
2023-06-11T01:08:16.622Z,88490.00
2023-06-11T01:09:16.555Z,88490.00
2023-06-11T01:10:16.519Z,88488.00
2023-06-11T01:11:16.455Z,88490.00
2023-06-11T01:12:16.409Z,88488.00
2023-06-11T01:13:16.361Z,88497.00
2023-06-11T01:14:16.331Z,88488.00
2023-06-11T01:15:16.264Z,88490.00
2023-06-11T01:16:16.232Z,88490.00
2023-06-11T01:17:17.129Z,88490.00
2023-06-11T01:18:16.167Z,88497.00
2023-06-11T01:19:16.089Z,88490.00
2023-06-11T01:20:16.079Z,88488.00
2023-06-11T01:21:16.007Z,88490.00
2023-06-11T01:22:15.971Z,88490.00
2023-06-11T01:23:15.940Z,88488.00
2023-06-11T01:24:15.956Z,88488.00
2023-06-11T01:25:15.861Z,88499.00
2023-06-11T01:26:15.799Z,88499.00
2023-06-11T01:27:15.761Z,88501.00
2023-06-11T01:28:15.710Z,88501.00
2023-06-11T01:29:15.677Z,88501.00
2023-06-11T01:30:15.667Z,88501.00
2023-06-11T01:31:15.671Z,88505.00
2023-06-11T01:32:15.662Z,88505.00
2023-06-11T01:33:15.613Z,88505.00
2023-06-11T01:34:15.639Z,88505.00
2023-06-11T01:35:15.656Z,88507.00
2023-06-11T01:36:15.683Z,88509.00
2023-06-11T01:37:15.620Z,88511.00
2023-06-11T01:38:15.609Z,88509.00
2023-06-11T01:39:15.625Z,88509.00
2023-06-11T01:40:15.715Z,88509.00
2023-06-11T01:41:15.774Z,88511.00
2023-06-11T01:42:15.614Z,88509.00
2023-06-11T01:43:15.602Z,88511.00
2023-06-11T01:44:15.615Z,88513.00
2023-06-11T01:45:15.636Z,88509.00
2023-06-11T01:46:15.645Z,88511.00
2023-06-11T01:47:15.581Z,88507.00
2023-06-11T01:48:15.577Z,88513.00
2023-06-11T01:49:15.535Z,88511.00
2023-06-11T01:50:15.502Z,88509.00
2023-06-11T01:51:15.494Z,88511.00
2023-06-11T01:52:15.499Z,88513.00
2023-06-11T01:53:15.478Z,88513.00
2023-06-11T01:54:15.496Z,88519.00
2023-06-11T01:55:15.449Z,88517.00
2023-06-11T01:56:15.418Z,88519.00
2023-06-11T01:57:15.381Z,88515.00
2023-06-11T01:58:15.363Z,88517.00
2023-06-11T01:59:15.381Z,88517.00
2023-06-11T02:00:15.402Z,88519.00
2023-06-11T02:01:15.394Z,88519.00
2023-06-11T02:02:15.414Z,88521.00
2023-06-11T02:03:15.424Z,88519.00
2023-06-11T02:04:15.369Z,88519.00
2023-06-11T02:05:15.333Z,88519.00
2023-06-11T02:06:15.356Z,88519.00
2023-06-11T02:07:15.327Z,88519.00
2023-06-11T02:08:15.301Z,88517.00
2023-06-11T02:09:15.302Z,88517.00
2023-06-11T02:10:15.265Z,88513.00
2023-06-11T02:11:15.242Z,88515.00
2023-06-11T02:12:15.212Z,88513.00
2023-06-11T02:13:15.179Z,88513.00
2023-06-11T02:14:15.136Z,88515.00
2023-06-11T02:15:15.223Z,88515.00
2023-06-11T02:16:15.178Z,88515.00
2023-06-11T02:17:15.105Z,88511.00
2023-06-11T02:18:15.136Z,88513.00
2023-06-11T02:19:15.144Z,88515.00
2023-06-11T02:20:15.177Z,88515.00
2023-06-11T02:21:15.175Z,88515.00
2023-06-11T02:22:15.151Z,88513.00
2023-06-11T02:23:15.184Z,88509.00
2023-06-11T02:24:15.282Z,88511.00
2023-06-11T02:25:15.169Z,88511.00
2023-06-11T02:26:15.098Z,88509.00
2023-06-11T02:27:15.050Z,88509.00
2023-06-11T02:28:15.051Z,88509.00
2023-06-11T02:29:15.082Z,88507.00
2023-06-11T02:30:15.040Z,88507.00
2023-06-11T02:31:15.025Z,88509.00
2023-06-11T02:32:15.069Z,88507.00
2023-06-11T02:33:14.998Z,88509.00
2023-06-11T02:34:14.967Z,88511.00
2023-06-11T02:35:14.931Z,88509.00
2023-06-11T02:36:14.899Z,88509.00
2023-06-11T02:37:14.862Z,88509.00
2023-06-11T02:38:14.936Z,88507.00
2023-06-11T02:39:14.897Z,88507.00
2023-06-11T02:40:14.913Z,88505.00
2023-06-11T02:41:14.891Z,88505.00
2023-06-11T02:42:14.878Z,88507.00
2023-06-11T02:43:14.873Z,88505.00
2023-06-11T02:44:14.891Z,88507.00
2023-06-11T02:45:14.906Z,88509.00
2023-06-11T02:46:14.936Z,88509.00
2023-06-11T02:47:14.866Z,88507.00
2023-06-11T02:48:14.871Z,88509.00
2023-06-11T02:49:14.880Z,88511.00
2023-06-11T02:50:14.908Z,88511.00
2023-06-11T02:51:14.877Z,88509.00
2023-06-11T02:52:14.908Z,88511.00
2023-06-11T02:53:14.903Z,88511.00
2023-06-11T02:54:14.877Z,88513.00
2023-06-11T02:55:14.963Z,88507.00
2023-06-11T02:56:14.843Z,88509.00
2023-06-11T02:57:14.827Z,88509.00
2023-06-11T02:58:14.805Z,88513.00
2023-06-11T02:59:14.761Z,88513.00
2023-06-11T03:00:14.724Z,88513.00
2023-06-11T03:01:14.734Z,88511.00
2023-06-11T03:02:14.667Z,88511.00
2023-06-11T03:03:14.650Z,88509.00
2023-06-11T03:04:14.686Z,88509.00
2023-06-11T03:05:14.943Z,88507.00
2023-06-11T03:06:14.613Z,88507.00
2023-06-11T03:07:14.610Z,88509.00
2023-06-11T03:08:14.678Z,88509.00
2023-06-11T03:09:14.649Z,88505.00
2023-06-11T03:10:14.611Z,88511.00
2023-06-11T03:11:14.591Z,88511.00
2023-06-11T03:12:14.573Z,88511.00
2023-06-11T03:13:14.530Z,88511.00
2023-06-11T03:14:14.578Z,88511.00
2023-06-11T03:15:14.743Z,88511.00
2023-06-11T03:16:14.644Z,88513.00
2023-06-11T03:17:14.542Z,88511.00
2023-06-11T03:18:14.505Z,88513.00
2023-06-11T03:19:14.434Z,88513.00
2023-06-11T03:20:14.424Z,88513.00
2023-06-11T03:21:14.363Z,88513.00
2023-06-11T03:22:14.372Z,88509.00
2023-06-11T03:23:14.380Z,88507.00
2023-06-11T03:24:14.455Z,88507.00
2023-06-11T03:25:14.459Z,88507.00
2023-06-11T03:26:14.389Z,88507.00
2023-06-11T03:27:14.354Z,88509.00
2023-06-11T03:28:14.348Z,88507.00
2023-06-11T03:29:14.347Z,88507.00
2023-06-11T03:30:14.337Z,88507.00
2023-06-11T03:31:14.317Z,88505.00
2023-06-11T03:32:14.245Z,88507.00
2023-06-11T03:33:14.226Z,88509.00
2023-06-11T03:34:14.176Z,88511.00
2023-06-11T03:35:14.153Z,88509.00
2023-06-11T03:36:14.156Z,88511.00
2023-06-11T03:37:14.216Z,88513.00
2023-06-11T03:38:14.170Z,88513.00
2023-06-11T03:39:14.188Z,88513.00
2023-06-11T03:40:14.197Z,88513.00
2023-06-11T03:41:14.194Z,88513.00
2023-06-11T03:42:14.236Z,88511.00
2023-06-11T03:43:14.173Z,88513.00
2023-06-11T03:44:14.169Z,88511.00
2023-06-11T03:45:14.200Z,88509.00
2023-06-11T03:46:14.155Z,88513.00
2023-06-11T03:47:14.234Z,88513.00
2023-06-11T03:48:14.198Z,88515.00
2023-06-11T03:49:14.171Z,88517.00
2023-06-11T03:50:14.190Z,88515.00
2023-06-11T03:51:14.209Z,88517.00
2023-06-11T03:52:14.183Z,88517.00
2023-06-11T03:53:14.857Z,88517.00
2023-06-11T03:54:14.881Z,88519.00
2023-06-11T03:55:14.120Z,88517.00
2023-06-11T03:56:14.140Z,88515.00
2023-06-11T03:57:14.109Z,88517.00
2023-06-11T03:58:14.085Z,88517.00
2023-06-11T03:59:14.103Z,88521.00
2023-06-11T04:00:14.094Z,88517.00
2023-06-11T04:01:14.090Z,88519.00
2023-06-11T04:02:14.137Z,88521.00
2023-06-11T04:03:14.180Z,88521.00
2023-06-11T04:04:14.221Z,88521.00
2023-06-11T04:05:14.208Z,88521.00
2023-06-11T04:06:14.191Z,88525.00
2023-06-11T04:07:14.156Z,88523.00
2023-06-11T04:08:14.158Z,88523.00
2023-06-11T04:09:14.076Z,88523.00
2023-06-11T04:10:14.076Z,88525.00
2023-06-11T04:11:14.004Z,88529.00
2023-06-11T04:12:13.969Z,88529.00
2023-06-11T04:13:13.971Z,88529.00
2023-06-11T04:14:13.916Z,88525.00
2023-06-11T04:15:13.885Z,88525.00
2023-06-11T04:16:13.868Z,88523.00
2023-06-11T04:17:13.902Z,88525.00
2023-06-11T04:18:13.916Z,88525.00
2023-06-11T04:19:13.806Z,88525.00
2023-06-11T04:20:13.767Z,88527.00
2023-06-11T04:21:13.716Z,88527.00
2023-06-11T04:22:13.710Z,88529.00
2023-06-11T04:23:13.718Z,88529.00
2023-06-11T04:24:13.665Z,88531.00
2023-06-11T04:25:13.805Z,88533.00
2023-06-11T04:26:13.594Z,88533.00
2023-06-11T04:27:13.605Z,88533.00
2023-06-11T04:28:13.617Z,88533.00
2023-06-11T04:29:13.593Z,88531.00
2023-06-11T04:30:13.611Z,88531.00
2023-06-11T04:31:13.615Z,88533.00
2023-06-11T04:32:13.548Z,88527.00
2023-06-11T04:33:13.573Z,88529.00
2023-06-11T04:34:13.471Z,88527.00
2023-06-11T04:35:15.820Z,88527.00
2023-06-11T04:36:13.357Z,88529.00
2023-06-11T04:37:13.337Z,88535.00
2023-06-11T04:38:13.230Z,88531.00
2023-06-11T04:39:13.162Z,88535.00
2023-06-11T04:40:13.128Z,88537.00
2023-06-11T04:41:13.061Z,88535.00
2023-06-11T04:42:13.042Z,88535.00
2023-06-11T04:43:12.943Z,88533.00
2023-06-11T04:44:12.896Z,88539.00
2023-06-11T04:45:13.075Z,88539.00
2023-06-11T04:46:12.778Z,88537.00
2023-06-11T04:47:12.692Z,88537.00
2023-06-11T04:48:12.640Z,88535.00
2023-06-11T04:49:12.566Z,88539.00
2023-06-11T04:50:12.516Z,88537.00
2023-06-11T04:51:12.460Z,88535.00
2023-06-11T04:52:12.427Z,88539.00
2023-06-11T04:53:12.335Z,88537.00
2023-06-11T04:54:12.258Z,88537.00
2023-06-11T04:55:12.481Z,88535.00
2023-06-11T04:56:12.152Z,88535.00
2023-06-11T04:57:12.108Z,88535.00
2023-06-11T04:58:12.098Z,88535.00
2023-06-11T04:59:11.990Z,88533.00
2023-06-11T05:00:12.392Z,88533.00
2023-06-11T05:01:11.872Z,88535.00
2023-06-11T05:02:11.913Z,88535.00
2023-06-11T05:03:11.847Z,88531.00
2023-06-11T05:04:11.699Z,88531.00
2023-06-11T05:05:11.843Z,88533.00
2023-06-11T05:06:11.604Z,88533.00
2023-06-11T05:07:11.552Z,88533.00
2023-06-11T05:08:11.457Z,88533.00
2023-06-11T05:09:11.425Z,88533.00
2023-06-11T05:10:11.432Z,88531.00
2023-06-11T05:11:11.385Z,88535.00
2023-06-11T05:12:11.298Z,88533.00
2023-06-11T05:13:11.310Z,88535.00
2023-06-11T05:14:11.167Z,88535.00
2023-06-11T05:15:11.472Z,88533.00
2023-06-11T05:16:11.075Z,88533.00
2023-06-11T05:17:11.014Z,88531.00
2023-06-11T05:18:11.007Z,88535.00
2023-06-11T05:19:10.906Z,88535.00
2023-06-11T05:20:10.880Z,88533.00
2023-06-11T05:21:10.844Z,88533.00
2023-06-11T05:22:10.794Z,88537.00
2023-06-11T05:23:10.764Z,88535.00
2023-06-11T05:24:10.754Z,88535.00
2023-06-11T05:25:11.053Z,88535.00
2023-06-11T05:26:10.612Z,88533.00
2023-06-11T05:27:10.576Z,88531.00
2023-06-11T05:28:10.543Z,88533.00
2023-06-11T05:29:10.515Z,88531.00
2023-06-11T05:30:10.907Z,88533.00
2023-06-11T05:31:10.524Z,88533.00
2023-06-11T05:32:10.626Z,88533.00
2023-06-11T05:33:10.600Z,88529.00
2023-06-11T05:34:10.506Z,88529.00
2023-06-11T05:35:10.731Z,88525.00
2023-06-11T05:36:10.446Z,88529.00
2023-06-11T05:37:10.454Z,88527.00
2023-06-11T05:38:10.433Z,88525.00
2023-06-11T05:39:10.414Z,88525.00
2023-06-11T05:40:10.374Z,88525.00
2023-06-11T05:41:10.348Z,88521.00
2023-06-11T05:42:10.259Z,88521.00
2023-06-11T05:43:10.177Z,88523.00
2023-06-11T05:44:10.112Z,88523.00
2023-06-11T05:45:10.524Z,88523.00
2023-06-11T05:46:10.052Z,88521.00
2023-06-11T05:47:10.027Z,88519.00
2023-06-11T05:48:09.964Z,88517.00
2023-06-11T05:49:09.859Z,88517.00
2023-06-11T05:50:09.834Z,88515.00
2023-06-11T05:51:09.756Z,88521.00
2023-06-11T05:52:09.711Z,88519.00
2023-06-11T05:53:09.645Z,88515.00
2023-06-11T05:54:09.624Z,88513.00
2023-06-11T05:55:09.853Z,88511.00
2023-06-11T05:56:09.558Z,88513.00
2023-06-11T05:57:09.569Z,88517.00
2023-06-11T05:58:09.528Z,88517.00
2023-06-11T05:59:09.482Z,88517.00
2023-06-11T06:00:09.463Z,88519.00
2023-06-11T06:01:09.458Z,88517.00
2023-06-11T06:02:09.437Z,88515.00
2023-06-11T06:03:09.528Z,88519.00
2023-06-11T06:04:09.522Z,88521.00
2023-06-11T06:05:09.624Z,88521.00
2023-06-11T06:06:09.431Z,88521.00
2023-06-11T06:07:09.424Z,88517.00
2023-06-11T06:08:09.403Z,88521.00
2023-06-11T06:09:09.400Z,88519.00
2023-06-11T06:10:09.451Z,88519.00
2023-06-11T06:11:09.371Z,88521.00
2023-06-11T06:12:09.320Z,88517.00
2023-06-11T06:13:09.350Z,88523.00
2023-06-11T06:14:09.306Z,88521.00
2023-06-11T06:15:09.538Z,88525.00
2023-06-11T06:16:09.257Z,88525.00
2023-06-11T06:17:09.218Z,88525.00
2023-06-11T06:18:09.254Z,88525.00
2023-06-11T06:19:09.149Z,88523.00
2023-06-11T06:20:09.159Z,88525.00
2023-06-11T06:21:09.109Z,88525.00
2023-06-11T06:22:09.059Z,88523.00
2023-06-11T06:23:09.046Z,88527.00
2023-06-11T06:24:08.999Z,88525.00
2023-06-11T06:25:09.177Z,88527.00
2023-06-11T06:26:08.907Z,88525.00
2023-06-11T06:27:08.875Z,88525.00
2023-06-11T06:28:08.867Z,88525.00
2023-06-11T06:29:08.825Z,88527.00
2023-06-11T06:30:08.796Z,88527.00
2023-06-11T06:31:08.890Z,88529.00
2023-06-11T06:32:08.749Z,88527.00
2023-06-11T06:33:08.845Z,88531.00
2023-06-11T06:34:08.703Z,88527.00
2023-06-11T06:35:09.014Z,88527.00
2023-06-11T06:36:08.658Z,88531.00
2023-06-11T06:37:08.628Z,88533.00
2023-06-11T06:38:08.643Z,88529.00
2023-06-11T06:39:08.563Z,88533.00
2023-06-11T06:40:08.779Z,88533.00
2023-06-11T06:41:08.554Z,88533.00
2023-06-11T06:42:09.420Z,88537.00
2023-06-11T06:43:08.439Z,88537.00
2023-06-11T06:44:08.451Z,88535.00
2023-06-11T06:45:08.540Z,88537.00
2023-06-11T06:46:08.362Z,88537.00
2023-06-11T06:47:08.328Z,88539.00
2023-06-11T06:48:08.388Z,88543.00
2023-06-11T06:49:08.258Z,88537.00
2023-06-11T06:50:08.381Z,88537.00
2023-06-11T06:51:08.138Z,88537.00
2023-06-11T06:52:08.084Z,88535.00
2023-06-11T06:53:08.036Z,88535.00
2023-06-11T06:54:07.952Z,88537.00
2023-06-11T06:55:07.880Z,88533.00
2023-06-11T06:56:07.836Z,88537.00
2023-06-11T06:57:07.816Z,88537.00
2023-06-11T06:58:07.805Z,88535.00
2023-06-11T06:59:07.632Z,88531.00
2023-06-11T07:00:07.570Z,88533.00
2023-06-11T07:01:07.564Z,88533.00
2023-06-11T07:02:09.735Z,88531.00
2023-06-11T07:03:07.457Z,88541.00
2023-06-11T07:04:07.291Z,88539.00
2023-06-11T07:05:07.186Z,88541.00
2023-06-11T07:06:07.210Z,88539.00
2023-06-11T07:07:07.008Z,88537.00
2023-06-11T07:08:06.933Z,88537.00
2023-06-11T07:09:06.840Z,88537.00
2023-06-11T07:10:06.770Z,88539.00
2023-06-11T07:11:06.682Z,88541.00
2023-06-11T07:12:06.602Z,88533.00
2023-06-11T07:13:06.530Z,88539.00
2023-06-11T07:14:06.440Z,88541.00
2023-06-11T07:15:06.371Z,88539.00
2023-06-11T07:16:06.382Z,88539.00
2023-06-11T07:17:06.162Z,88543.00
2023-06-11T07:18:06.146Z,88543.00
2023-06-11T07:19:05.959Z,88539.00
2023-06-11T07:20:05.947Z,88541.00
2023-06-11T07:21:05.768Z,88535.00
2023-06-11T07:22:05.694Z,88537.00
2023-06-11T07:23:05.599Z,88531.00
2023-06-11T07:24:05.550Z,88531.00
2023-06-11T07:25:05.423Z,88535.00
2023-06-11T07:26:05.299Z,88531.00
2023-06-11T07:27:05.194Z,88531.00
2023-06-11T07:28:05.129Z,88529.00
2023-06-11T07:29:05.003Z,88533.00
2023-06-11T07:30:04.888Z,88529.00
2023-06-11T07:31:04.832Z,88527.00
2023-06-11T07:32:04.684Z,88529.00
2023-06-11T07:33:04.663Z,88531.00
2023-06-11T07:34:04.489Z,88529.00
2023-06-11T07:35:04.390Z,88527.00
2023-06-11T07:36:04.291Z,88527.00
2023-06-11T07:37:04.170Z,88527.00
2023-06-11T07:38:04.080Z,88521.00
2023-06-11T07:39:03.940Z,88523.00
2023-06-11T07:40:03.925Z,88523.00
2023-06-11T07:41:03.756Z,88523.00
2023-06-11T07:42:03.620Z,88527.00
2023-06-11T07:43:03.550Z,88527.00
2023-06-11T07:44:03.381Z,88523.00
2023-06-11T07:45:03.268Z,88525.00
2023-06-11T07:46:03.169Z,88521.00
2023-06-11T07:47:03.114Z,88527.00
2023-06-11T07:48:02.946Z,88521.00
2023-06-11T07:49:02.766Z,88521.00
2023-06-11T07:50:02.631Z,88523.00
2023-06-11T07:51:02.530Z,88523.00
2023-06-11T07:52:02.405Z,88519.00
2023-06-11T07:53:02.329Z,88515.00
2023-06-11T07:54:02.210Z,88515.00
2023-06-11T07:55:02.107Z,88515.00
2023-06-11T07:56:01.968Z,88519.00
2023-06-11T07:57:01.840Z,88515.00
2023-06-11T07:58:01.795Z,88511.00
2023-06-11T07:59:01.624Z,88513.00
2023-06-11T08:00:01.513Z,88515.00
2023-06-11T08:01:01.460Z,88513.00
2023-06-11T08:02:01.412Z,88515.00
2023-06-11T08:03:01.281Z,88511.00
2023-06-11T08:04:01.083Z,88511.00
2023-06-11T08:05:00.980Z,88511.00
2023-06-11T08:06:00.995Z,88507.00
2023-06-11T08:07:00.775Z,88513.00
2023-06-11T08:08:00.701Z,88511.00
2023-06-11T08:09:00.582Z,88507.00
2023-06-11T08:10:00.492Z,88509.00
2023-06-11T08:11:00.420Z,88511.00
2023-06-11T08:12:00.347Z,88515.00
2023-06-11T08:13:00.302Z,88517.00
2023-06-11T08:14:00.291Z,88505.00
2023-06-11T08:15:00.228Z,88509.00
2023-06-11T08:16:00.189Z,88509.00
2023-06-11T08:17:00.233Z,88511.00
2023-06-11T08:18:00.193Z,88509.00
2023-06-11T08:19:00.079Z,88507.00
2023-06-11T08:19:59.992Z,88507.00
2023-06-11T08:20:59.975Z,88507.00
2023-06-11T08:21:59.922Z,88505.00
2023-06-11T08:22:59.863Z,88505.00
2023-06-11T08:23:59.883Z,88507.00
2023-06-11T08:24:59.807Z,88507.00
2023-06-11T08:25:59.955Z,88503.00
2023-06-11T08:26:59.762Z,88507.00
2023-06-11T08:28:00.458Z,88503.00
2023-06-11T08:28:59.639Z,88499.00
2023-06-11T08:29:59.592Z,88501.00
2023-06-11T08:30:59.567Z,88503.00
2023-06-11T08:31:59.504Z,88499.00
2023-06-11T08:32:59.459Z,88499.00
2023-06-11T08:33:59.388Z,88499.00
2023-06-11T08:34:59.301Z,88490.00
2023-06-11T08:35:59.260Z,88497.00
2023-06-11T08:36:59.177Z,88499.00
2023-06-11T08:37:59.098Z,88501.00
2023-06-11T08:38:59.033Z,88497.00
2023-06-11T08:39:59.037Z,88497.00
2023-06-11T08:40:59.009Z,88499.00
2023-06-11T08:41:58.937Z,88505.00
2023-06-11T08:42:58.868Z,88499.00
2023-06-11T08:43:58.789Z,88497.00
2023-06-11T08:44:58.699Z,88497.00
2023-06-11T08:45:58.694Z,88503.00
2023-06-11T08:46:58.592Z,88484.00
2023-06-11T08:47:58.545Z,88483.00
2023-06-11T08:48:58.465Z,88488.00
2023-06-11T08:49:58.371Z,88481.00
2023-06-11T08:50:58.295Z,88479.00
2023-06-11T08:51:58.201Z,88481.00
2023-06-11T08:52:58.097Z,88481.00
2023-06-11T08:53:58.061Z,88475.00
2023-06-11T08:54:58.001Z,88475.00
2023-06-11T08:55:58.440Z,88477.00
2023-06-11T08:56:57.963Z,88475.00
2023-06-11T08:57:57.794Z,88479.00
2023-06-11T08:58:57.697Z,88481.00
2023-06-11T08:59:57.625Z,88481.00
2023-06-11T09:00:57.560Z,88475.00
2023-06-11T09:01:57.533Z,88481.00
2023-06-11T09:02:57.493Z,88471.00
2023-06-11T09:03:57.386Z,88479.00
2023-06-11T09:04:57.333Z,88479.00
2023-06-11T09:05:57.293Z,88481.00
2023-06-11T09:06:57.261Z,88483.00
2023-06-11T09:07:57.232Z,88490.00
2023-06-11T09:08:57.131Z,88481.00
2023-06-11T09:09:57.073Z,88497.00
2023-06-11T09:10:57.093Z,88483.00
2023-06-11T09:11:56.965Z,88486.00
2023-06-11T09:12:58.029Z,88499.00
2023-06-11T09:13:56.870Z,88486.00
2023-06-11T09:14:56.807Z,88486.00
2023-06-11T09:15:56.863Z,88488.00
2023-06-11T09:16:56.667Z,88488.00
2023-06-11T09:17:56.654Z,88499.00
2023-06-11T09:18:56.571Z,88490.00
2023-06-11T09:19:56.544Z,88490.00
2023-06-11T09:20:56.503Z,88497.00
2023-06-11T09:21:56.498Z,88499.00
2023-06-11T09:22:56.306Z,88497.00
2023-06-11T09:23:56.248Z,88499.00
2023-06-11T09:24:56.111Z,88490.00
2023-06-11T09:25:56.033Z,88490.00
2023-06-11T09:26:55.953Z,88490.00
2023-06-11T09:27:55.851Z,88497.00
2023-06-11T09:28:55.732Z,88488.00
2023-06-11T09:29:55.636Z,88486.00
2023-06-11T09:30:55.540Z,88490.00
2023-06-11T09:31:55.465Z,88499.00
2023-06-11T09:32:55.427Z,88488.00
2023-06-11T09:33:55.209Z,88499.00
2023-06-11T09:34:55.134Z,88497.00
2023-06-11T09:35:55.023Z,88499.00
2023-06-11T09:36:54.894Z,88488.00
2023-06-11T09:37:54.822Z,88497.00
2023-06-11T09:38:54.722Z,88490.00
2023-06-11T09:39:54.632Z,88490.00
2023-06-11T09:40:54.591Z,88486.00
2023-06-11T09:41:54.492Z,88486.00
2023-06-11T09:42:54.424Z,88503.00
2023-06-11T09:43:54.372Z,88499.00
2023-06-11T09:44:54.354Z,88488.00
2023-06-11T09:45:54.226Z,88488.00
2023-06-11T09:46:54.121Z,88488.00
2023-06-11T09:47:54.114Z,88488.00
2023-06-11T09:48:53.922Z,88490.00
2023-06-11T09:49:53.859Z,88488.00
2023-06-11T09:50:53.768Z,88488.00
2023-06-11T09:51:53.656Z,88486.00
2023-06-11T09:52:53.637Z,88484.00
2023-06-11T09:53:53.596Z,88488.00
2023-06-11T09:54:53.494Z,88497.00
2023-06-11T09:56:09.573Z,88490.00
2023-06-11T09:56:54.319Z,88488.00
2023-06-11T09:57:53.209Z,88486.00
2023-06-11T09:58:53.093Z,88497.00
2023-06-11T09:59:52.980Z,88497.00
2023-06-11T10:00:52.911Z,88497.00
2023-06-11T10:01:52.841Z,88497.00
2023-06-11T10:02:52.702Z,88501.00
2023-06-11T10:03:52.576Z,88490.00
2023-06-11T10:04:52.478Z,88486.00
2023-06-11T10:05:52.369Z,88488.00
2023-06-11T10:06:52.241Z,88490.00
2023-06-11T10:07:52.161Z,88490.00
2023-06-11T10:08:52.039Z,88497.00
2023-06-11T10:09:51.944Z,88501.00
2023-06-11T10:10:51.876Z,88503.00
2023-06-11T10:11:51.808Z,88499.00
2023-06-11T10:12:51.805Z,88505.00
2023-06-11T10:13:51.637Z,88511.00
2023-06-11T10:14:51.601Z,88503.00
2023-06-11T10:15:51.529Z,88505.00
2023-06-11T10:16:51.476Z,88499.00
2023-06-11T10:17:51.365Z,88501.00
2023-06-11T10:18:51.241Z,88503.00
2023-06-11T10:19:51.164Z,88507.00
2023-06-11T10:20:51.183Z,88501.00
2023-06-11T10:21:51.074Z,88513.00
2023-06-11T10:22:51.006Z,88507.00
2023-06-11T10:23:51.002Z,88509.00
2023-06-11T10:24:50.848Z,88509.00
2023-06-11T10:25:50.742Z,88507.00
2023-06-11T10:26:50.680Z,88511.00
2023-06-11T10:27:50.508Z,88513.00
2023-06-11T10:28:50.432Z,88511.00
2023-06-11T10:29:50.375Z,88509.00
2023-06-11T10:30:50.319Z,88509.00
2023-06-11T10:31:50.248Z,88511.00
2023-06-11T10:32:50.363Z,88511.00
2023-06-11T10:33:50.075Z,88511.00
2023-06-11T10:34:50.100Z,88509.00
2023-06-11T10:35:49.890Z,88507.00
2023-06-11T10:36:49.757Z,88511.00
2023-06-11T10:37:49.659Z,88513.00
2023-06-11T10:38:49.613Z,88509.00
2023-06-11T10:39:49.493Z,88509.00
2023-06-11T10:40:49.416Z,88513.00
2023-06-11T10:41:49.318Z,88509.00
2023-06-11T10:42:49.258Z,88513.00
2023-06-11T10:43:49.226Z,88507.00
2023-06-11T10:44:49.085Z,88507.00
2023-06-11T10:45:50.143Z,88505.00
2023-06-11T10:46:48.871Z,88505.00
2023-06-11T10:47:48.775Z,88507.00
2023-06-11T10:48:48.628Z,88503.00
2023-06-11T10:49:48.541Z,88501.00
2023-06-11T10:50:48.451Z,88501.00
2023-06-11T10:51:48.329Z,88501.00
2023-06-11T10:52:48.223Z,88497.00
2023-06-11T10:53:48.163Z,88499.00
2023-06-11T10:54:48.050Z,88499.00
2023-06-11T10:55:47.954Z,88490.00
2023-06-11T10:56:47.880Z,88486.00
2023-06-11T10:57:47.777Z,88497.00
2023-06-11T10:58:47.657Z,88497.00
2023-06-11T10:59:47.564Z,88497.00
2023-06-11T11:00:47.496Z,88488.00
2023-06-11T11:01:47.388Z,88497.00
2023-06-11T11:02:47.370Z,88499.00
2023-06-11T11:03:47.301Z,88501.00
2023-06-11T11:04:47.103Z,88490.00
2023-06-11T11:05:47.057Z,88499.00
2023-06-11T11:06:46.957Z,88497.00
2023-06-11T11:07:46.875Z,88499.00
2023-06-11T11:08:46.779Z,88499.00
2023-06-11T11:09:46.711Z,88499.00
2023-06-11T11:10:46.686Z,88501.00
2023-06-11T11:11:46.734Z,88501.00
2023-06-11T11:12:46.539Z,88499.00
2023-06-11T11:13:46.429Z,88501.00
2023-06-11T11:14:46.346Z,88501.00
2023-06-11T11:15:46.270Z,88499.00
2023-06-11T11:16:46.248Z,88501.00
2023-06-11T11:17:46.147Z,88501.00
2023-06-11T11:18:46.016Z,88505.00
2023-06-11T11:19:45.942Z,88503.00
2023-06-11T11:20:45.904Z,88505.00
2023-06-11T11:21:45.804Z,88503.00
2023-06-11T11:22:45.692Z,88505.00
2023-06-11T11:23:45.696Z,88507.00
2023-06-11T11:24:45.509Z,88501.00
2023-06-11T11:25:45.424Z,88503.00
2023-06-11T11:26:45.350Z,88501.00
2023-06-11T11:27:45.279Z,88503.00
2023-06-11T11:28:45.196Z,88499.00
2023-06-11T11:29:45.071Z,88499.00
2023-06-11T11:30:45.009Z,88499.00
2023-06-11T11:31:44.995Z,88499.00
2023-06-11T11:32:44.853Z,88490.00
2023-06-11T11:33:44.753Z,88490.00
2023-06-11T11:34:44.623Z,88486.00
2023-06-11T11:35:44.542Z,88484.00
2023-06-11T11:36:44.427Z,88484.00
2023-06-11T11:37:44.330Z,88484.00
2023-06-11T11:38:44.301Z,88484.00
2023-06-11T11:39:44.200Z,88481.00
2023-06-11T11:40:44.095Z,88483.00
2023-06-11T11:41:43.984Z,88477.00
2023-06-11T11:42:43.870Z,88479.00
2023-06-11T11:43:43.827Z,88477.00